createdAt,value
2023-04-28T00:01:25.610Z,100428.63
2023-04-28T00:03:57.044Z,100426.94
2023-04-28T00:06:31.083Z,100426.16
2023-04-28T00:09:00.950Z,100421.03
2023-04-28T00:11:30.798Z,100423.75
2023-04-28T00:14:00.573Z,100420.28
2023-04-28T00:16:30.249Z,100407.25
2023-04-28T00:18:59.912Z,100405.59
2023-04-28T00:21:32.246Z,100396.97
2023-04-28T00:24:01.987Z,100393.56
2023-04-28T00:26:31.668Z,100389.22
2023-04-28T00:29:01.441Z,100384.00
2023-04-28T00:31:31.230Z,100379.72
2023-04-28T00:34:01.500Z,100378.94
2023-04-28T00:36:33.829Z,100376.44
2023-04-28T00:39:03.560Z,100372.91
2023-04-28T00:41:33.324Z,100362.59
2023-04-28T00:44:02.949Z,100360.09
2023-04-28T00:46:33.967Z,100355.72
2023-04-28T00:49:03.720Z,100356.00
2023-04-28T00:51:36.667Z,100357.88
2023-04-28T00:54:07.144Z,100352.78
2023-04-28T00:56:37.068Z,100357.19
2023-04-28T00:59:06.814Z,100358.94
2023-04-28T01:01:36.794Z,100359.81
2023-04-28T01:04:06.921Z,100344.94
2023-04-28T01:06:41.532Z,100348.44
2023-04-28T01:09:12.163Z,100351.06
2023-04-28T01:11:41.875Z,100354.66
2023-04-28T01:14:14.079Z,100351.22
2023-04-28T01:16:45.027Z,100356.50
2023-04-28T01:19:20.143Z,100349.53
2023-04-28T01:21:52.602Z,100353.19
2023-04-28T01:24:26.575Z,100352.59
2023-04-28T01:27:00.875Z,100349.28
2023-04-28T01:29:31.313Z,100353.75
2023-04-28T01:32:01.317Z,100351.13
2023-04-28T01:34:31.134Z,100362.50
2023-04-28T01:37:00.786Z,100362.44
2023-04-28T01:39:33.125Z,100354.59
2023-04-28T01:42:02.863Z,100359.88
2023-04-28T01:44:32.500Z,100359.06
2023-04-28T01:47:02.286Z,100366.09
2023-04-28T01:49:32.350Z,100359.06
2023-04-28T01:52:02.393Z,100359.97
2023-04-28T01:54:35.542Z,100354.69
2023-04-28T01:57:06.182Z,100351.22
2023-04-28T01:59:36.368Z,100353.13
2023-04-28T02:02:08.751Z,100353.25
2023-04-28T02:04:38.640Z,100358.63
2023-04-28T02:07:08.706Z,100356.00
2023-04-28T02:09:41.025Z,100356.00
2023-04-28T02:12:11.122Z,100356.00
2023-04-28T02:14:40.768Z,100351.59
2023-04-28T02:17:10.472Z,100350.63
2023-04-28T02:19:40.493Z,100345.38
2023-04-28T02:22:10.229Z,100343.59
2023-04-28T02:24:42.476Z,100336.56
2023-04-28T02:27:12.688Z,100334.78
2023-04-28T02:29:42.355Z,100330.38
2023-04-28T02:32:12.064Z,100318.16
2023-04-28T02:34:41.802Z,100323.41
2023-04-28T02:37:11.485Z,100315.63
2023-04-28T02:39:47.230Z,100323.72
2023-04-28T02:42:18.505Z,100324.75
2023-04-28T02:44:48.432Z,100337.88
2023-04-28T02:47:18.214Z,100338.75
2023-04-28T02:49:48.384Z,100338.75
2023-04-28T02:52:18.698Z,100343.94
2023-04-28T02:54:54.661Z,100342.97
2023-04-28T02:57:24.377Z,100338.56
2023-04-28T02:59:54.366Z,100335.09
2023-04-28T03:02:24.572Z,100333.25
2023-04-28T03:04:54.327Z,100340.22
2023-04-28T03:07:24.061Z,100334.97
2023-04-28T03:09:56.454Z,100337.53
2023-04-28T03:12:26.144Z,100332.25
2023-04-28T03:14:56.073Z,100334.00
2023-04-28T03:17:26.162Z,100336.63
2023-04-28T03:19:56.125Z,100333.13
2023-04-28T03:22:26.034Z,100324.34
2023-04-28T03:24:58.412Z,100328.69
2023-04-28T03:27:30.257Z,100315.53
2023-04-28T03:30:00.682Z,100313.75
2023-04-28T03:32:30.565Z,100314.53
2023-04-28T03:35:00.439Z,100317.97
2023-04-28T03:37:30.200Z,100320.53
2023-04-28T03:40:03.369Z,100316.94
2023-04-28T03:42:41.196Z,100312.41
2023-04-28T03:45:13.781Z,100310.53
2023-04-28T03:47:43.594Z,100305.06
2023-04-28T03:50:13.850Z,100299.69
2023-04-28T03:52:43.507Z,100299.47
2023-04-28T03:55:16.413Z,100289.75
2023-04-28T03:57:46.231Z,100275.63
2023-04-28T04:00:16.935Z,100282.53
2023-04-28T04:02:48.748Z,100279.75
2023-04-28T04:05:19.569Z,100269.19
2023-04-28T04:07:49.422Z,100261.31
2023-04-28T04:10:21.919Z,100256.03
2023-04-28T04:12:52.622Z,100250.63
2023-04-28T04:15:23.258Z,100251.56
2023-04-28T04:17:53.042Z,100242.75
2023-04-28T04:20:24.776Z,100244.53
2023-04-28T04:22:54.605Z,100247.00
2023-04-28T04:25:27.183Z,100243.53
2023-04-28T04:27:58.059Z,100226.81
2023-04-28T04:30:28.024Z,100206.63
2023-04-28T04:32:57.837Z,100214.41
2023-04-28T04:35:27.811Z,100216.97
2023-04-28T04:37:57.745Z,100235.31
2023-04-28T04:40:30.287Z,100236.97
2023-04-28T04:43:00.134Z,100238.69
2023-04-28T04:45:31.269Z,100237.69
2023-04-28T04:48:01.148Z,100242.88
2023-04-28T04:50:30.888Z,100242.88
2023-04-28T04:53:01.141Z,100248.06
2023-04-28T04:55:33.728Z,100248.03
2023-04-28T04:58:04.064Z,100243.53
2023-04-28T05:00:34.019Z,100238.22
2023-04-28T05:03:04.376Z,100237.34
2023-04-28T05:05:34.825Z,100240.75
2023-04-28T05:08:24.920Z,100239.06
2023-04-28T05:10:57.848Z,100241.63
2023-04-28T05:13:27.895Z,100238.88
2023-04-28T05:16:03.065Z,100228.28
2023-04-28T05:18:48.560Z,100231.75
2023-04-28T05:21:18.867Z,100229.97
2023-04-28T05:23:48.692Z,100229.97
2023-04-28T05:26:21.070Z,100229.03
2023-04-28T05:28:51.511Z,100225.50
2023-04-28T05:31:21.322Z,100229.81
2023-04-28T05:33:51.888Z,100222.75
2023-04-28T05:36:21.790Z,100216.56
2023-04-28T05:38:51.974Z,100206.78
2023-04-28T05:41:24.963Z,100201.47
2023-04-28T05:43:54.759Z,100202.22
2023-04-28T05:46:30.693Z,100202.13
2023-04-28T05:49:02.688Z,100187.94
2023-04-28T05:51:41.608Z,100197.44
2023-04-28T05:54:11.536Z,100205.34
2023-04-28T05:56:49.318Z,100196.63
2023-04-28T05:59:19.639Z,100199.22
2023-04-28T06:01:50.869Z,100196.50
2023-04-28T06:04:21.083Z,100193.78
2023-04-28T06:06:52.242Z,100199.84
2023-04-28T06:09:22.187Z,100195.31
2023-04-28T06:11:54.608Z,100196.00
2023-04-28T06:14:25.975Z,100193.16
2023-04-28T06:16:55.718Z,100200.00
2023-04-28T06:19:25.538Z,100192.94
2023-04-28T06:21:55.277Z,100187.47
2023-04-28T06:24:24.949Z,100190.72
2023-04-28T06:27:00.779Z,100188.75
2023-04-28T06:29:31.035Z,100173.66
2023-04-28T06:32:00.793Z,100173.41
2023-04-28T06:34:31.229Z,100167.00
2023-04-28T06:37:01.688Z,100167.63
2023-04-28T06:39:31.673Z,100168.34
2023-04-28T06:42:04.522Z,100169.69
2023-04-28T06:44:38.118Z,100163.06
2023-04-28T06:47:08.028Z,100164.16
2023-04-28T06:49:44.033Z,100160.69
2023-04-28T06:52:14.444Z,100166.97
2023-04-28T06:54:44.325Z,100166.56
2023-04-28T06:57:16.668Z,100171.59
2023-04-28T06:59:46.703Z,100159.97
2023-04-28T07:02:16.550Z,100159.66
2023-04-28T07:04:46.333Z,100152.59
2023-04-28T07:07:16.991Z,100147.16
2023-04-28T07:09:46.914Z,100141.63
2023-04-28T07:12:19.216Z,100145.41
2023-04-28T07:14:48.957Z,100138.69
2023-04-28T07:17:18.674Z,100138.28
2023-04-28T07:19:50.095Z,100135.31
2023-04-28T07:22:20.210Z,100139.50
2023-04-28T07:24:49.924Z,100134.72
2023-04-28T07:27:22.209Z,100133.72
2023-04-28T07:29:51.986Z,100124.56
2023-04-28T07:32:21.752Z,100132.69
2023-04-28T07:34:51.489Z,100135.09
2023-04-28T07:37:21.644Z,100128.78
2023-04-28T07:39:51.292Z,100117.63
2023-04-28T07:42:23.551Z,100125.31
2023-04-28T07:44:53.266Z,100132.47
2023-04-28T07:47:23.264Z,100135.13
2023-04-28T07:49:52.931Z,100133.91
2023-04-28T07:52:22.627Z,100129.22
2023-04-28T07:54:52.295Z,100125.44
2023-04-28T07:57:24.797Z,100119.06
2023-04-28T07:59:54.582Z,100140.19
2023-04-28T08:02:24.338Z,100133.97
2023-04-28T08:04:54.376Z,100139.25
2023-04-28T08:07:24.843Z,100133.78
2023-04-28T08:09:55.344Z,100141.38
2023-04-28T08:12:27.713Z,100143.66
2023-04-28T08:14:57.525Z,100129.25
2023-04-28T08:17:27.276Z,100128.97
2023-04-28T08:19:57.067Z,100125.97
2023-04-28T08:22:26.776Z,100124.25
2023-04-28T08:24:56.491Z,100131.91
2023-04-28T08:27:28.989Z,100136.00
2023-04-28T08:29:58.774Z,100127.13
2023-04-28T08:32:28.788Z,100121.66
2023-04-28T08:34:58.686Z,100125.81
2023-04-28T08:37:29.476Z,100125.22
2023-04-28T08:40:03.394Z,100120.13
2023-04-28T08:42:37.659Z,100115.97
2023-04-28T08:45:08.823Z,100123.56
2023-04-28T08:47:40.741Z,100126.00
2023-04-28T08:50:12.621Z,100127.75
2023-04-28T08:52:43.149Z,100126.50
2023-04-28T08:55:14.590Z,100125.28
2023-04-28T08:57:49.059Z,100124.19
2023-04-28T09:00:19.249Z,100114.25
2023-04-28T09:02:49.051Z,100116.91
2023-04-28T09:05:19.092Z,100120.88
2023-04-28T09:07:52.188Z,100118.22
2023-04-28T09:10:23.561Z,100111.13
2023-04-28T09:12:58.705Z,100103.75
2023-04-28T09:15:32.672Z,100094.25
2023-04-28T09:18:04.105Z,100095.56
2023-04-28T09:20:35.106Z,100101.63
2023-04-28T09:23:18.486Z,100098.19
2023-04-28T09:26:04.824Z,100106.69
2023-04-28T09:28:38.031Z,100105.75
2023-04-28T09:31:07.940Z,100110.09
2023-04-28T09:33:37.650Z,100104.03
2023-04-28T09:36:08.177Z,100110.09
2023-04-28T09:38:46.645Z,100110.22
2023-04-28T09:41:16.581Z,100109.28
2023-04-28T09:43:49.096Z,100118.84
2023-04-28T09:46:31.908Z,100131.34
2023-04-28T09:49:04.624Z,100131.25
2023-04-28T09:51:34.747Z,100133.06
2023-04-28T09:54:05.736Z,100124.09
2023-04-28T09:56:40.919Z,100129.28
2023-04-28T09:59:13.485Z,100121.44
2023-04-28T10:01:44.041Z,100114.41
2023-04-28T10:04:14.793Z,100108.63
2023-04-28T10:06:44.848Z,100114.50
2023-04-28T10:09:15.008Z,100105.09
2023-04-28T10:11:45.007Z,100111.13
2023-04-28T10:14:17.365Z,100113.78
2023-04-28T10:16:47.653Z,100109.50
2023-04-28T10:19:17.321Z,100117.63
2023-04-28T10:21:54.782Z,100113.28
2023-04-28T10:24:29.833Z,100107.34
2023-04-28T10:27:07.762Z,100103.63
2023-04-28T10:29:40.446Z,100105.16
2023-04-28T10:32:21.157Z,100106.00
2023-04-28T10:34:51.477Z,100110.34
2023-04-28T10:37:21.257Z,100115.78
2023-04-28T10:40:21.005Z,100113.78
2023-04-28T10:42:57.873Z,100119.41
2023-04-28T10:46:12.505Z,100119.03
2023-04-28T10:49:08.676Z,100119.69
2023-04-28T10:51:38.515Z,100119.53
2023-04-28T10:54:19.657Z,100122.94
2023-04-28T10:57:23.017Z,100131.63
2023-04-28T10:59:53.359Z,100120.06
2023-04-28T11:02:46.323Z,100129.44
2023-04-28T11:05:20.608Z,100131.91
2023-04-28T11:08:35.459Z,100124.50
2023-04-28T11:11:21.251Z,100125.59
2023-04-28T11:13:51.917Z,100125.59
2023-04-28T11:16:23.721Z,100122.19
2023-04-28T11:19:07.299Z,100129.19
2023-04-28T11:21:39.676Z,100123.97
2023-04-28T11:24:13.195Z,100129.00
2023-04-28T11:26:43.949Z,100132.13
2023-04-28T11:29:15.135Z,100134.78
2023-04-28T11:31:52.266Z,100121.19
2023-04-28T11:34:23.401Z,100122.25
2023-04-28T11:36:56.139Z,100121.41
2023-04-28T11:39:31.493Z,100120.81
2023-04-28T11:42:02.478Z,100124.09
2023-04-28T11:44:33.527Z,100131.97
2023-04-28T11:47:05.219Z,100130.81
2023-04-28T11:49:44.612Z,100126.19
2023-04-28T11:52:17.000Z,100125.94
2023-04-28T11:54:46.816Z,100122.47
2023-04-28T11:57:23.456Z,100121.09
2023-04-28T11:59:53.832Z,100130.34
2023-04-28T12:02:31.019Z,100120.78
2023-04-28T12:05:09.240Z,100122.06
2023-04-28T12:07:46.811Z,100127.38
2023-04-28T12:10:18.967Z,100115.91
2023-04-28T12:12:52.360Z,100120.34
2023-04-28T12:15:24.938Z,100116.72
2023-04-28T12:17:54.809Z,100126.59
2023-04-28T12:20:38.092Z,100125.22
2023-04-28T12:23:11.327Z,100122.78
2023-04-28T12:25:48.216Z,100124.59
2023-04-28T12:28:18.059Z,100121.81
2023-04-28T12:30:47.865Z,100139.47
2023-04-28T12:33:27.484Z,100141.06
2023-04-28T12:35:57.849Z,100125.53
2023-04-28T12:38:30.329Z,100129.34
2023-04-28T12:41:00.563Z,100131.81
2023-04-28T12:43:30.409Z,100128.38
2023-04-28T12:46:00.730Z,100108.81
2023-04-28T12:48:31.983Z,100101.03
2023-04-28T12:51:01.705Z,100106.34
2023-04-28T12:53:34.139Z,100103.13
2023-04-28T12:56:03.860Z,100097.03
2023-04-28T12:58:33.746Z,100076.41
2023-04-28T13:01:03.422Z,100082.03
2023-04-28T13:03:33.192Z,100076.13
2023-04-28T13:06:02.964Z,100071.91
2023-04-28T13:08:35.418Z,100077.84
2023-04-28T13:11:16.171Z,100079.47
2023-04-28T13:13:52.980Z,100072.84
2023-04-28T13:16:25.207Z,100070.53
2023-04-28T13:18:54.970Z,100058.34
2023-04-28T13:21:24.729Z,100059.34
2023-04-28T13:23:57.458Z,100048.22
2023-04-28T13:26:27.314Z,100040.00
2023-04-28T13:28:57.161Z,100041.34
2023-04-28T13:31:26.932Z,100037.69
2023-04-28T13:33:56.685Z,100034.19
2023-04-28T13:36:26.990Z,100028.25
2023-04-28T13:39:01.584Z,100023.53
2023-04-28T13:41:32.138Z,100021.81
2023-04-28T13:44:01.878Z,100008.94
2023-04-28T13:46:31.675Z,100010.28
2023-04-28T13:49:01.853Z,100015.25
2023-04-28T13:51:33.081Z,100003.13
2023-04-28T13:54:08.374Z,100001.63
2023-04-28T13:56:38.838Z,99992.63
2023-04-28T13:59:08.502Z,99996.75
2023-04-28T14:01:38.264Z,99992.25
2023-04-28T14:04:08.150Z,99991.00
2023-04-28T14:06:38.349Z,99992.25
2023-04-28T14:09:10.715Z,99998.53
2023-04-28T14:11:40.569Z,100001.94
2023-04-28T14:14:10.344Z,99992.97
2023-04-28T14:16:40.095Z,99984.84
2023-04-28T14:19:10.144Z,99984.84
2023-04-28T14:21:40.054Z,99983.75
2023-04-28T14:24:13.109Z,99980.25
2023-04-28T14:26:44.078Z,99977.75
2023-04-28T14:29:13.921Z,99985.34
2023-04-28T14:31:43.636Z,99987.38
2023-04-28T14:34:13.669Z,99980.81
2023-04-28T14:36:43.346Z,99982.63
2023-04-28T14:39:16.138Z,99982.94
2023-04-28T14:41:46.076Z,99976.00
2023-04-28T14:44:16.147Z,99965.19
2023-04-28T14:46:46.063Z,99967.72
2023-04-28T14:49:15.781Z,99971.88
2023-04-28T14:51:46.186Z,99972.88
2023-04-28T14:54:18.552Z,99980.41
2023-04-28T14:56:48.414Z,99971.69
2023-04-28T14:59:19.008Z,99966.63
2023-04-28T15:01:50.669Z,99974.75
2023-04-28T15:04:20.843Z,99976.56
2023-04-28T15:06:50.791Z,99981.06
2023-04-28T15:09:23.564Z,99980.06
2023-04-28T15:11:54.180Z,99989.00
2023-04-28T15:14:23.864Z,99981.25
2023-04-28T15:16:53.568Z,99990.28
2023-04-28T15:19:23.597Z,99999.53
2023-04-28T15:21:53.745Z,100002.44
2023-04-28T15:24:26.246Z,100007.75
2023-04-28T15:26:56.676Z,100009.94
2023-04-28T15:29:26.389Z,100011.88
2023-04-28T15:31:56.864Z,100006.31
2023-04-28T15:34:26.793Z,100017.25
2023-04-28T15:36:56.783Z,100039.06
2023-04-28T15:39:29.182Z,100042.50
2023-04-28T15:41:59.680Z,100043.09
2023-04-28T15:44:30.729Z,100043.72
2023-04-28T15:47:00.735Z,100054.53
2023-04-28T15:49:30.442Z,100056.22
2023-04-28T15:52:00.296Z,100059.59
2023-04-28T15:54:34.048Z,100067.59
2023-04-28T15:57:03.755Z,100087.06
2023-04-28T15:59:33.718Z,100080.59
2023-04-28T16:02:03.657Z,100089.41
2023-04-28T16:04:33.594Z,100117.66
2023-04-28T16:07:04.511Z,100097.75
2023-04-28T16:09:36.951Z,100092.88
2023-04-28T16:12:07.643Z,100098.16
2023-04-28T16:14:37.682Z,100099.31
2023-04-28T16:17:07.856Z,100102.66
2023-04-28T16:19:38.234Z,100105.31
2023-04-28T16:22:08.020Z,100106.81
2023-04-28T16:24:42.739Z,100107.31
2023-04-28T16:27:12.877Z,100114.44
2023-04-28T16:29:42.731Z,100108.38
2023-04-28T16:32:12.542Z,100106.94
2023-04-28T16:34:42.341Z,100112.25
2023-04-28T16:37:12.053Z,100107.13
2023-04-28T16:39:44.317Z,100107.59
2023-04-28T16:42:14.015Z,100111.13
2023-04-28T16:44:44.168Z,100107.59
2023-04-28T16:47:14.367Z,100104.19
2023-04-28T16:49:44.138Z,100106.25
2023-04-28T16:52:13.838Z,100118.91
2023-04-28T16:54:46.231Z,100116.59
2023-04-28T16:57:15.983Z,100111.41
2023-04-28T16:59:45.870Z,100117.88
2023-04-28T17:02:15.551Z,100121.09
2023-04-28T17:04:45.424Z,100119.53
2023-04-28T17:07:15.121Z,100115.06
2023-04-28T17:09:47.422Z,100128.34
2023-04-28T17:12:17.886Z,100125.94
2023-04-28T17:14:47.547Z,100131.31
2023-04-28T17:17:17.943Z,100126.13
2023-04-28T17:19:47.691Z,100128.13
2023-04-28T17:22:17.719Z,100132.69
2023-04-28T17:24:49.966Z,100134.84
2023-04-28T17:27:19.725Z,100133.59
2023-04-28T17:29:49.591Z,100145.19
2023-04-28T17:32:19.414Z,100139.13
2023-04-28T17:34:49.074Z,100138.25
2023-04-28T17:37:18.810Z,100140.06
2023-04-28T17:39:52.410Z,100146.56
2023-04-28T17:42:22.386Z,100148.91
2023-04-28T17:44:52.197Z,100147.53
2023-04-28T17:47:22.324Z,100155.00
2023-04-28T17:49:52.388Z,100159.66
2023-04-28T17:52:22.630Z,100152.09
2023-04-28T17:54:54.987Z,100154.97
2023-04-28T17:57:24.681Z,100162.22
2023-04-28T17:59:54.466Z,100162.22
2023-04-28T18:02:24.170Z,100160.94
2023-04-28T18:04:54.047Z,100168.16
2023-04-28T18:07:23.888Z,100178.00
2023-04-28T18:09:57.425Z,100174.63
2023-04-28T18:12:27.543Z,100178.88
2023-04-28T18:14:57.961Z,100180.97
2023-04-28T18:17:27.781Z,100176.00
2023-04-28T18:19:57.914Z,100189.78
2023-04-28T18:22:28.102Z,100189.22
2023-04-28T18:25:00.599Z,100193.03
2023-04-28T18:27:30.377Z,100204.22
2023-04-28T18:30:00.042Z,100202.72
2023-04-28T18:32:30.217Z,100205.88
2023-04-28T18:35:00.766Z,100204.19
2023-04-28T18:37:30.536Z,100207.34
2023-04-28T18:40:02.903Z,100208.28
2023-04-28T18:42:33.173Z,100210.16
2023-04-28T18:45:04.539Z,100221.84
2023-04-28T18:47:35.332Z,100218.34
2023-04-28T18:50:05.555Z,100217.69
2023-04-28T18:52:35.187Z,100209.91
2023-04-28T18:55:08.754Z,100218.63
2023-04-28T18:57:38.566Z,100224.88
2023-04-28T19:00:09.823Z,100226.22
2023-04-28T19:02:39.634Z,100225.19
2023-04-28T19:05:10.548Z,100221.78
2023-04-28T19:07:40.278Z,100226.44
2023-04-28T19:10:13.739Z,100228.22
2023-04-28T19:12:43.559Z,100230.25
2023-04-28T19:15:13.866Z,100224.38
2023-04-28T19:17:43.660Z,100231.38
2023-04-28T19:20:13.955Z,100237.53
2023-04-28T19:22:44.417Z,100233.91
2023-04-28T19:25:16.780Z,100241.03
2023-04-28T19:27:47.517Z,100238.47
2023-04-28T19:30:17.976Z,100246.53
2023-04-28T19:32:47.767Z,100244.72
2023-04-28T19:35:17.489Z,100245.69
2023-04-28T19:37:48.524Z,100248.44
2023-04-28T19:40:20.886Z,100253.81
2023-04-28T19:42:51.308Z,100252.97
2023-04-28T19:45:21.026Z,100251.38
2023-04-28T19:47:50.661Z,100256.09
2023-04-28T19:50:21.291Z,100253.44
2023-04-28T19:52:51.063Z,100250.78
2023-04-28T19:55:24.668Z,100255.25
2023-04-28T19:57:57.303Z,100256.28
2023-04-28T20:00:28.334Z,100259.16
2023-04-28T20:02:59.371Z,100261.88
2023-04-28T20:05:29.148Z,100263.66
2023-04-28T20:07:58.848Z,100268.22
2023-04-28T20:10:31.308Z,100260.47
2023-04-28T20:13:01.483Z,100262.16
2023-04-28T20:15:31.160Z,100259.53
2023-04-28T20:18:00.895Z,100256.03
2023-04-28T20:20:30.652Z,100257.81
2023-04-28T20:23:00.439Z,100261.41
2023-04-28T20:25:32.836Z,100251.84
2023-04-28T20:28:02.534Z,100265.00
2023-04-28T20:30:32.190Z,100267.84
2023-04-28T20:33:01.937Z,100263.28
2023-04-28T20:35:31.662Z,100267.84
2023-04-28T20:38:01.438Z,100270.50
2023-04-28T20:40:34.839Z,100276.75
2023-04-28T20:43:04.591Z,100274.66
2023-04-28T20:45:34.644Z,100281.06
2023-04-28T20:48:04.450Z,100285.63
2023-04-28T20:50:36.415Z,100296.59
2023-04-28T20:53:06.107Z,100303.13
2023-04-28T20:55:38.536Z,100311.44
2023-04-28T20:58:08.294Z,100312.53
2023-04-28T21:00:41.199Z,100317.06
2023-04-28T21:03:15.746Z,100317.50
2023-04-28T21:05:46.673Z,100319.53
2023-04-28T21:08:16.541Z,100326.84
2023-04-28T21:10:48.820Z,100326.94
2023-04-28T21:13:18.522Z,100336.66
2023-04-28T21:15:48.326Z,100338.53
2023-04-28T21:18:17.993Z,100342.97
2023-04-28T21:20:48.036Z,100350.00
2023-04-28T21:23:17.668Z,100356.06
2023-04-28T21:25:49.926Z,100353.50
2023-04-28T21:28:20.764Z,100357.00
2023-04-28T21:30:50.623Z,100365.88
2023-04-28T21:33:22.328Z,100361.44
2023-04-28T21:35:52.158Z,100364.94
2023-04-28T21:38:21.851Z,100366.75
2023-04-28T21:40:54.449Z,100373.75
2023-04-28T21:43:24.232Z,100371.09
2023-04-28T21:45:54.724Z,100376.38
2023-04-28T21:48:24.635Z,100379.13
2023-04-28T21:50:54.312Z,100378.19
2023-04-28T21:53:24.089Z,100384.34
2023-04-28T21:55:56.594Z,100384.22
2023-04-28T21:58:26.367Z,100378.94
2023-04-28T22:00:56.090Z,100385.19
2023-04-28T22:03:26.115Z,100384.34
2023-04-28T22:05:56.006Z,100387.97
2023-04-28T22:08:25.688Z,100391.66
2023-04-28T22:10:57.957Z,100390.81
2023-04-28T22:13:27.939Z,100395.50
2023-04-28T22:15:59.267Z,100404.59
2023-04-28T22:18:29.133Z,100402.03
2023-04-28T22:20:58.823Z,100404.16
2023-04-28T22:23:28.711Z,100412.19
2023-04-28T22:26:02.934Z,100409.53
2023-04-28T22:28:32.711Z,100414.00
2023-04-28T22:31:02.393Z,100418.47
2023-04-28T22:33:32.527Z,100421.31
2023-04-28T22:36:02.369Z,100419.69
2023-04-28T22:38:32.090Z,100422.50
2023-04-28T22:41:05.617Z,100433.25
2023-04-28T22:43:35.286Z,100433.69
2023-04-28T22:46:05.218Z,100434.19
2023-04-28T22:48:34.903Z,100439.63
2023-04-28T22:51:04.588Z,100438.72
2023-04-28T22:53:34.262Z,100435.88
2023-04-28T22:56:06.750Z,100450.91
2023-04-28T22:58:36.493Z,100444.91
2023-04-28T23:01:06.678Z,100455.75
2023-04-28T23:03:38.443Z,100455.41
2023-04-28T23:06:08.488Z,100442.50
2023-04-28T23:08:38.200Z,100437.63
2023-04-28T23:11:10.959Z,100431.69
2023-04-28T23:13:40.754Z,100419.50
2023-04-28T23:16:11.090Z,100424.78
2023-04-28T23:18:40.837Z,100409.00
2023-04-28T23:21:11.406Z,100408.06
2023-04-28T23:23:41.113Z,100415.56
2023-04-28T23:26:13.444Z,100402.25
2023-04-28T23:28:43.102Z,100417.44
2023-04-28T23:31:13.384Z,100413.31
2023-04-28T23:33:43.147Z,100418.91
2023-04-28T23:36:12.775Z,100412.84
2023-04-28T23:38:42.534Z,100415.69
2023-04-28T23:41:15.001Z,100415.22
2023-04-28T23:43:44.660Z,100418.91
2023-04-28T23:46:14.462Z,100414.63
2023-04-28T23:48:44.212Z,100418.22
2023-04-28T23:51:13.949Z,100416.41
2023-04-28T23:53:44.007Z,100425.28
2023-04-28T23:56:16.654Z,100420.06
2023-04-28T23:58:46.396Z,100429.69
